sensor_id;sensor_type;location;lat;lon;timestamp;pressure;altitude;pressure_sealevel;temperature;humidity
1926;BME280;964;42.606;23.588;2022-09-09T00:00:19;94743.25;;;32.72;31.38
1926;BME280;964;42.606;23.588;2022-09-09T00:02:53;94749.66;;;31.25;32.63
1926;BME280;964;42.606;23.588;2022-09-09T00:05:29;94737.97;;;32.11;31.97
1926;BME280;964;42.606;23.588;2022-09-09T00:07:59;94745.28;;;32.45;31.45
1926;BME280;964;42.606;23.588;2022-09-09T00:10:31;94749.16;;;32.33;31.78
1926;BME280;964;42.606;23.588;2022-09-09T00:13:09;94746.84;;;32.57;31.70
1926;BME280;964;42.606;23.588;2022-09-09T00:15:46;94748.72;;;32.15;32.35
1926;BME280;964;42.606;23.588;2022-09-09T00:18:24;94749.41;;;32.35;31.94
1926;BME280;964;42.606;23.588;2022-09-09T00:20:56;94735.91;;;32.06;32.86
1926;BME280;964;42.606;23.588;2022-09-09T00:23:25;94736.88;;;32.03;33.09
1926;BME280;964;42.606;23.588;2022-09-09T00:26:01;94732.28;;;32.15;32.86
1926;BME280;964;42.606;23.588;2022-09-09T00:28:34;94731.16;;;31.81;32.98
1926;BME280;964;42.606;23.588;2022-09-09T00:31:11;94726.94;;;31.59;33.62
1926;BME280;964;42.606;23.588;2022-09-09T00:33:39;94727.34;;;31.52;33.71
1926;BME280;964;42.606;23.588;2022-09-09T00:36:12;94724.09;;;30.79;34.42
1926;BME280;964;42.606;23.588;2022-09-09T00:38:45;94719.31;;;31.49;33.91
1926;BME280;964;42.606;23.588;2022-09-09T00:41:19;94715.56;;;32.13;32.77
1926;BME280;964;42.606;23.588;2022-09-09T00:43:56;94711.94;;;31.55;33.40
1926;BME280;964;42.606;23.588;2022-09-09T00:46:45;94702.91;;;31.69;33.08
1926;BME280;964;42.606;23.588;2022-09-09T00:49:24;94696.81;;;31.59;33.59
1926;BME280;964;42.606;23.588;2022-09-09T00:52:01;94692.94;;;31.51;33.68
1926;BME280;964;42.606;23.588;2022-09-09T00:54:38;94699.22;;;31.78;32.97
1926;BME280;964;42.606;23.588;2022-09-09T00:57:15;94690.22;;;31.72;32.96
1926;BME280;964;42.606;23.588;2022-09-09T00:59:52;94712.53;;;30.25;35.32
1926;BME280;964;42.606;23.588;2022-09-09T01:02:27;94705.97;;;31.16;34.36
1926;BME280;964;42.606;23.588;2022-09-09T01:05:01;94705.03;;;31.59;33.08
1926;BME280;964;42.606;23.588;2022-09-09T01:07:30;94707.69;;;31.34;33.47
1926;BME280;964;42.606;23.588;2022-09-09T01:09:58;94705.75;;;31.20;33.09
1926;BME280;964;42.606;23.588;2022-09-09T01:12:32;94705.09;;;31.65;32.73
1926;BME280;964;42.606;23.588;2022-09-09T01:15:08;94698.22;;;31.75;32.98
1926;BME280;964;42.606;23.588;2022-09-09T01:17:46;94704.88;;;31.48;33.21
1926;BME280;964;42.606;23.588;2022-09-09T01:20:19;94702.41;;;31.50;33.34
1926;BME280;964;42.606;23.588;2022-09-09T01:23:00;94712.31;;;31.48;33.81
1926;BME280;964;42.606;23.588;2022-09-09T01:26:04;94716.31;;;30.57;34.25
1926;BME280;964;42.606;23.588;2022-09-09T01:28:36;94711.69;;;30.98;33.70
1926;BME280;964;42.606;23.588;2022-09-09T01:31:06;94711.03;;;31.23;33.24
1926;BME280;964;42.606;23.588;2022-09-09T01:33:35;94701.94;;;31.98;32.44
1926;BME280;964;42.606;23.588;2022-09-09T01:36:06;94710.94;;;30.62;34.04
1926;BME280;964;42.606;23.588;2022-09-09T01:38:34;94701.78;;;31.00;33.17
1926;BME280;964;42.606;23.588;2022-09-09T01:41:04;94714.34;;;30.92;33.07
1926;BME280;964;42.606;23.588;2022-09-09T01:43:31;94706.13;;;30.57;33.88
1926;BME280;964;42.606;23.588;2022-09-09T01:46:00;94702.16;;;30.58;33.99
1926;BME280;964;42.606;23.588;2022-09-09T01:48:28;94700.28;;;30.35;34.25
1926;BME280;964;42.606;23.588;2022-09-09T01:50:56;94697.59;;;31.05;33.01
1926;BME280;964;42.606;23.588;2022-09-09T01:53:23;94708.91;;;30.78;33.69
1926;BME280;964;42.606;23.588;2022-09-09T01:55:57;94699.06;;;30.86;33.25
1926;BME280;964;42.606;23.588;2022-09-09T01:58:34;94702.75;;;30.83;33.26
1926;BME280;964;42.606;23.588;2022-09-09T02:01:13;94705.88;;;30.76;33.27
1926;BME280;964;42.606;23.588;2022-09-09T02:03:44;94710.41;;;30.79;33.23
1926;BME280;964;42.606;23.588;2022-09-09T02:06:22;94714.19;;;31.56;31.95
1926;BME280;964;42.606;23.588;2022-09-09T02:08:54;94721.28;;;31.08;33.23
1926;BME280;964;42.606;23.588;2022-09-09T02:11:24;94724.59;;;31.32;32.83
1926;BME280;964;42.606;23.588;2022-09-09T02:13:55;94728.44;;;31.20;33.14
1926;BME280;964;42.606;23.588;2022-09-09T02:16:25;94728.44;;;31.20;33.30
1926;BME280;964;42.606;23.588;2022-09-09T02:18:57;94712.91;;;31.32;32.76
1926;BME280;964;42.606;23.588;2022-09-09T02:21:28;94716.88;;;31.51;32.59
1926;BME280;964;42.606;23.588;2022-09-09T02:23:58;94706.59;;;31.46;32.28
1926;BME280;964;42.606;23.588;2022-09-09T02:26:26;94711.03;;;31.03;33.03
1926;BME280;964;42.606;23.588;2022-09-09T02:28:57;94705.72;;;31.14;33.16
1926;BME280;964;42.606;23.588;2022-09-09T02:31:25;94712.53;;;30.40;34.01
1926;BME280;964;42.606;23.588;2022-09-09T02:33:55;94710.75;;;30.51;34.16
1926;BME280;964;42.606;23.588;2022-09-09T02:36:26;94701.78;;;30.36;34.19
1926;BME280;964;42.606;23.588;2022-09-09T02:38:54;94695.44;;;30.94;33.62
1926;BME280;964;42.606;23.588;2022-09-09T02:41:25;94696.47;;;30.77;33.71
1926;BME280;964;42.606;23.588;2022-09-09T02:43:56;94695.38;;;30.89;33.35
1926;BME280;964;42.606;23.588;2022-09-09T02:46:39;94710.66;;;30.31;34.13
1926;BME280;964;42.606;23.588;2022-09-09T02:49:09;94713.84;;;29.47;35.30
1926;BME280;964;42.606;23.588;2022-09-09T02:51:42;94705.94;;;29.88;34.88
1926;BME280;964;42.606;23.588;2022-09-09T02:54:17;94700.47;;;30.32;34.54
1926;BME280;964;42.606;23.588;2022-09-09T02:56:50;94699.72;;;30.16;34.29
1926;BME280;964;42.606;23.588;2022-09-09T02:59:20;94709.34;;;30.12;34.24
1926;BME280;964;42.606;23.588;2022-09-09T03:01:47;94707.34;;;30.71;33.81
1926;BME280;964;42.606;23.588;2022-09-09T03:04:14;94708.69;;;30.02;34.36
1926;BME280;964;42.606;23.588;2022-09-09T03:06:40;94717.81;;;30.14;34.49
1926;BME280;964;42.606;23.588;2022-09-09T03:09:08;94708.22;;;30.48;33.90
1926;BME280;964;42.606;23.588;2022-09-09T03:11:35;94711.97;;;30.50;33.58
1926;BME280;964;42.606;23.588;2022-09-09T03:14:03;94706.41;;;30.59;33.71
1926;BME280;964;42.606;23.588;2022-09-09T03:16:32;94702.00;;;30.47;33.48
1926;BME280;964;42.606;23.588;2022-09-09T03:18:59;94701.53;;;30.34;33.92
1926;BME280;964;42.606;23.588;2022-09-09T03:21:26;94698.88;;;31.04;32.51
1926;BME280;964;42.606;23.588;2022-09-09T03:23:53;94707.34;;;30.91;32.73
1926;BME280;964;42.606;23.588;2022-09-09T03:26:20;94708.75;;;30.67;33.26
1926;BME280;964;42.606;23.588;2022-09-09T03:28:47;94711.22;;;30.50;33.77
1926;BME280;964;42.606;23.588;2022-09-09T03:31:15;94712.06;;;30.56;33.49
1926;BME280;964;42.606;23.588;2022-09-09T03:33:43;94715.19;;;30.34;33.86
1926;BME280;964;42.606;23.588;2022-09-09T03:36:10;94715.75;;;30.38;33.98
1926;BME280;964;42.606;23.588;2022-09-09T03:38:37;94715.44;;;30.65;33.31
1926;BME280;964;42.606;23.588;2022-09-09T03:41:04;94726.66;;;29.80;34.61
1926;BME280;964;42.606;23.588;2022-09-09T03:43:33;94719.91;;;30.19;34.09
1926;BME280;964;42.606;23.588;2022-09-09T03:46:00;94725.25;;;30.28;33.84
1926;BME280;964;42.606;23.588;2022-09-09T03:48:27;94721.44;;;30.20;34.14
1926;BME280;964;42.606;23.588;2022-09-09T03:50:55;94727.00;;;29.73;35.48
1926;BME280;964;42.606;23.588;2022-09-09T03:53:26;94729.31;;;29.50;35.65
1926;BME280;964;42.606;23.588;2022-09-09T03:55:55;94721.59;;;30.31;34.51
1926;BME280;964;42.606;23.588;2022-09-09T03:58:25;94738.66;;;30.11;34.43
1926;BME280;964;42.606;23.588;2022-09-09T04:00:54;94737.53;;;30.18;34.37
1926;BME280;964;42.606;23.588;2022-09-09T04:03:21;94737.84;;;29.82;34.83
1926;BME280;964;42.606;23.588;2022-09-09T04:05:50;94736.97;;;30.14;34.30
1926;BME280;964;42.606;23.588;2022-09-09T04:08:18;94727.91;;;30.23;34.33
1926;BME280;964;42.606;23.588;2022-09-09T04:10:45;94736.59;;;30.50;34.18
1926;BME280;964;42.606;23.588;2022-09-09T04:13:12;94728.38;;;30.21;34.79
1926;BME280;964;42.606;23.588;2022-09-09T04:15:40;94736.19;;;30.28;34.64
1926;BME280;964;42.606;23.588;2022-09-09T04:18:07;94739.25;;;30.45;34.69
1926;BME280;964;42.606;23.588;2022-09-09T04:20:34;94744.03;;;30.64;33.95
1926;BME280;964;42.606;23.588;2022-09-09T04:23:01;94741.66;;;30.28;34.50
1926;BME280;964;42.606;23.588;2022-09-09T04:25:30;94746.28;;;29.93;35.82
1926;BME280;964;42.606;23.588;2022-09-09T04:27:57;94751.75;;;30.07;35.40
1926;BME280;964;42.606;23.588;2022-09-09T04:30:24;94742.72;;;30.16;35.68
1926;BME280;964;42.606;23.588;2022-09-09T04:32:52;94743.84;;;30.53;35.26
1926;BME280;964;42.606;23.588;2022-09-09T04:35:19;94741.28;;;30.64;34.74
1926;BME280;964;42.606;23.588;2022-09-09T04:37:46;94739.81;;;30.63;35.46
1926;BME280;964;42.606;23.588;2022-09-09T04:40:13;94738.31;;;30.83;34.97
1926;BME280;964;42.606;23.588;2022-09-09T04:42:41;94738.31;;;30.97;35.09
1926;BME280;964;42.606;23.588;2022-09-09T04:45:09;94737.19;;;31.04;34.40
1926;BME280;964;42.606;23.588;2022-09-09T04:47:38;94727.91;;;31.36;34.39
1926;BME280;964;42.606;23.588;2022-09-09T04:50:07;94727.34;;;31.52;34.25
1926;BME280;964;42.606;23.588;2022-09-09T04:52:35;94737.41;;;31.41;33.88
1926;BME280;964;42.606;23.588;2022-09-09T04:55:04;94742.69;;;31.65;33.84
1926;BME280;964;42.606;23.588;2022-09-09T04:57:31;94742.16;;;31.40;33.74
1926;BME280;964;42.606;23.588;2022-09-09T04:59:59;94735.34;;;31.36;33.71
1926;BME280;964;42.606;23.588;2022-09-09T05:02:27;94728.72;;;30.73;34.79
1926;BME280;964;42.606;23.588;2022-09-09T05:04:55;94711.91;;;30.80;34.67
1926;BME280;964;42.606;23.588;2022-09-09T05:07:22;94711.59;;;31.47;34.28
1926;BME280;964;42.606;23.588;2022-09-09T05:09:49;94715.13;;;31.33;33.90
1926;BME280;964;42.606;23.588;2022-09-09T05:12:16;94703.63;;;31.70;33.47
1926;BME280;964;42.606;23.588;2022-09-09T05:14:43;94708.78;;;31.88;33.24
1926;BME280;964;42.606;23.588;2022-09-09T05:17:11;94695.31;;;31.58;33.84
1926;BME280;964;42.606;23.588;2022-09-09T05:19:38;94684.44;;;31.70;32.96
1926;BME280;964;42.606;23.588;2022-09-09T05:22:05;94688.28;;;31.37;33.92
1926;BME280;964;42.606;23.588;2022-09-09T05:24:32;94688.91;;;31.67;33.51
1926;BME280;964;42.606;23.588;2022-09-09T05:26:59;94680.38;;;31.19;34.31
1926;BME280;964;42.606;23.588;2022-09-09T05:29:28;94676.44;;;31.46;33.13
1926;BME280;964;42.606;23.588;2022-09-09T05:31:54;94683.88;;;31.40;34.18
1926;BME280;964;42.606;23.588;2022-09-09T05:34:22;94679.47;;;31.94;33.20
1926;BME280;964;42.606;23.588;2022-09-09T05:36:49;94678.81;;;31.79;33.43
1926;BME280;964;42.606;23.588;2022-09-09T05:39:16;94681.47;;;31.47;33.55
1926;BME280;964;42.606;23.588;2022-09-09T05:41:43;94679.81;;;32.33;32.41
1926;BME280;964;42.606;23.588;2022-09-09T05:44:10;94670.31;;;32.28;32.47
1926;BME280;964;42.606;23.588;2022-09-09T05:46:37;94678.13;;;32.41;32.21
1926;BME280;964;42.606;23.588;2022-09-09T05:49:03;94684.44;;;31.70;32.97
1926;BME280;964;42.606;23.588;2022-09-09T05:51:32;94678.66;;;32.45;32.51
1926;BME280;964;42.606;23.588;2022-09-09T05:53:59;94681.63;;;32.73;32.08
1926;BME280;964;42.606;23.588;2022-09-09T05:56:27;94687.66;;;32.45;32.49
1926;BME280;964;42.606;23.588;2022-09-09T05:58:55;94690.69;;;32.90;31.22
1926;BME280;964;42.606;23.588;2022-09-09T06:01:24;94695.75;;;33.50;31.17
1926;BME280;964;42.606;23.588;2022-09-09T06:03:51;94687.22;;;34.35;30.23
1926;BME280;964;42.606;23.588;2022-09-09T06:06:20;94686.94;;;34.06;30.17
1926;BME280;964;42.606;23.588;2022-09-09T06:08:50;94678.16;;;34.07;30.09
1926;BME280;964;42.606;23.588;2022-09-09T06:11:19;94678.44;;;34.37;30.44
1926;BME280;964;42.606;23.588;2022-09-09T06:13:47;94681.16;;;33.87;30.52
1926;BME280;964;42.606;23.588;2022-09-09T06:16:17;94683.19;;;34.25;30.10
1926;BME280;964;42.606;23.588;2022-09-09T06:18:45;94685.94;;;34.86;29.62
1926;BME280;964;42.606;23.588;2022-09-09T06:21:16;94691.69;;;34.83;29.45
1926;BME280;964;42.606;23.588;2022-09-09T06:23:43;94698.69;;;34.62;29.03
1926;BME280;964;42.606;23.588;2022-09-09T06:26:14;94693.31;;;35.36;27.96
1926;BME280;964;42.606;23.588;2022-09-09T06:28:42;94696.72;;;34.34;29.34
1926;BME280;964;42.606;23.588;2022-09-09T06:31:11;94694.97;;;34.37;29.40
1926;BME280;964;42.606;23.588;2022-09-09T06:33:40;94685.06;;;35.88;27.83
1926;BME280;964;42.606;23.588;2022-09-09T06:36:09;94690.75;;;35.49;27.67
1926;BME280;964;42.606;23.588;2022-09-09T06:38:36;94687.16;;;35.76;28.47
1926;BME280;964;42.606;23.588;2022-09-09T06:41:03;94690.41;;;35.75;28.09
1926;BME280;964;42.606;23.588;2022-09-09T06:43:32;94679.69;;;36.42;26.45
1926;BME280;964;42.606;23.588;2022-09-09T06:46:02;94686.31;;;36.88;27.33
1926;BME280;964;42.606;23.588;2022-09-09T06:48:29;94682.38;;;37.07;26.61
1926;BME280;964;42.606;23.588;2022-09-09T06:51:04;94687.88;;;36.83;27.51
1926;BME280;964;42.606;23.588;2022-09-09T06:53:32;94694.47;;;35.57;27.83
1926;BME280;964;42.606;23.588;2022-09-09T06:55:59;94691.44;;;36.13;27.48
1926;BME280;964;42.606;23.588;2022-09-09T06:58:27;94676.38;;;37.03;27.43
1926;BME280;964;42.606;23.588;2022-09-09T07:01:03;94682.91;;;36.16;27.24
1926;BME280;964;42.606;23.588;2022-09-09T07:03:30;94691.09;;;37.36;26.69
1926;BME280;964;42.606;23.588;2022-09-09T07:05:56;94690.13;;;38.26;25.26
1926;BME280;964;42.606;23.588;2022-09-09T07:08:24;94693.47;;;38.38;25.45
1926;BME280;964;42.606;23.588;2022-09-09T07:10:52;94691.50;;;37.21;27.21
1926;BME280;964;42.606;23.588;2022-09-09T07:13:19;94705.59;;;36.33;27.83
1926;BME280;964;42.606;23.588;2022-09-09T07:15:51;94697.78;;;37.83;25.92
1926;BME280;964;42.606;23.588;2022-09-09T07:18:19;94691.66;;;37.28;26.55
1926;BME280;964;42.606;23.588;2022-09-09T07:20:53;94694.22;;;37.26;26.24
1926;BME280;964;42.606;23.588;2022-09-09T07:23:20;94692.50;;;37.66;26.66
1926;BME280;964;42.606;23.588;2022-09-09T07:25:47;94686.41;;;37.49;26.22
1926;BME280;964;42.606;23.588;2022-09-09T07:28:14;94694.69;;;37.30;27.65
1926;BME280;964;42.606;23.588;2022-09-09T07:30:41;94701.94;;;36.20;27.24
1926;BME280;964;42.606;23.588;2022-09-09T07:33:08;94689.13;;;36.82;27.24
1926;BME280;964;42.606;23.588;2022-09-09T07:35:37;94686.22;;;38.03;25.55
1926;BME280;964;42.606;23.588;2022-09-09T07:38:04;94671.81;;;38.87;25.01
1926;BME280;964;42.606;23.588;2022-09-09T07:40:32;94672.03;;;39.15;25.03
1926;BME280;964;42.606;23.588;2022-09-09T07:42:59;94680.88;;;38.56;25.24
1926;BME280;964;42.606;23.588;2022-09-09T07:45:25;94668.31;;;39.86;25.32
1926;BME280;964;42.606;23.588;2022-09-09T07:47:53;94671.56;;;39.77;24.50
1926;BME280;964;42.606;23.588;2022-09-09T07:50:22;94653.84;;;41.04;23.26
1926;BME280;964;42.606;23.588;2022-09-09T07:52:50;94672.22;;;39.17;25.30
1926;BME280;964;42.606;23.588;2022-09-09T07:55:17;94669.84;;;38.69;25.82
1926;BME280;964;42.606;23.588;2022-09-09T07:57:44;94677.53;;;39.02;24.75
1926;BME280;964;42.606;23.588;2022-09-09T08:00:12;94678.06;;;39.53;25.26
1926;BME280;964;42.606;23.588;2022-09-09T08:02:40;94677.56;;;39.29;24.71
1926;BME280;964;42.606;23.588;2022-09-09T08:05:07;94680.13;;;39.00;25.30
1926;BME280;964;42.606;23.588;2022-09-09T08:07:34;94679.47;;;39.73;24.89
1926;BME280;964;42.606;23.588;2022-09-09T08:10:02;94670.88;;;39.84;24.30
1926;BME280;964;42.606;23.588;2022-09-09T08:12:29;94673.34;;;40.22;24.97
1926;BME280;964;42.606;23.588;2022-09-09T08:14:57;94671.16;;;40.48;23.80
1926;BME280;964;42.606;23.588;2022-09-09T08:17:24;94667.94;;;40.03;24.64
1926;BME280;964;42.606;23.588;2022-09-09T08:19:51;94671.25;;;40.01;24.41
1926;BME280;964;42.606;23.588;2022-09-09T08:22:19;94663.25;;;41.30;24.11
1926;BME280;964;42.606;23.588;2022-09-09T08:24:47;94659.53;;;41.27;24.09
1926;BME280;964;42.606;23.588;2022-09-09T08:27:15;94659.94;;;41.67;22.75
1926;BME280;964;42.606;23.588;2022-09-09T08:29:42;94663.97;;;41.23;24.29
1926;BME280;964;42.606;23.588;2022-09-09T08:32:08;94660.66;;;42.19;22.66
1926;BME280;964;42.606;23.588;2022-09-09T08:34:35;94657.91;;;41.75;22.87
1926;BME280;964;42.606;23.588;2022-09-09T08:37:02;94664.84;;;41.89;23.07
1926;BME280;964;42.606;23.588;2022-09-09T08:39:28;94651.78;;;42.43;22.65
1926;BME280;964;42.606;23.588;2022-09-09T08:42:06;94654.31;;;43.32;21.63
1926;BME280;964;42.606;23.588;2022-09-09T08:44:50;94656.22;;;42.31;23.75
1926;BME280;964;42.606;23.588;2022-09-09T08:47:30;94652.88;;;42.32;22.83
1926;BME280;964;42.606;23.588;2022-09-09T08:50:07;94650.31;;;43.03;23.61
1926;BME280;964;42.606;23.588;2022-09-09T08:52:47;94643.06;;;43.62;22.36
1926;BME280;964;42.606;23.588;2022-09-09T08:55:22;94645.84;;;44.02;21.58
1926;BME280;964;42.606;23.588;2022-09-09T08:57:53;94636.81;;;43.46;21.94
1926;BME280;964;42.606;23.588;2022-09-09T09:00:22;94637.59;;;43.32;22.54
1926;BME280;964;42.606;23.588;2022-09-09T09:03:00;94645.09;;;42.46;23.58
1926;BME280;964;42.606;23.588;2022-09-09T09:05:35;94630.34;;;44.09;21.67
1926;BME280;964;42.606;23.588;2022-09-09T09:08:10;94634.97;;;44.14;21.54
1926;BME280;964;42.606;23.588;2022-09-09T09:10:45;94640.81;;;42.30;22.96
1926;BME280;964;42.606;23.588;2022-09-09T09:13:15;94628.28;;;43.22;22.14
1926;BME280;964;42.606;23.588;2022-09-09T09:15:47;94632.31;;;43.51;21.91
1926;BME280;964;42.606;23.588;2022-09-09T09:18:17;94635.00;;;42.13;23.36
1926;BME280;964;42.606;23.588;2022-09-09T09:20:50;94635.81;;;42.36;23.41
1926;BME280;964;42.606;23.588;2022-09-09T09:23:22;94647.91;;;41.80;24.56
1926;BME280;964;42.606;23.588;2022-09-09T09:25:50;94640.66;;;40.97;24.86
1926;BME280;964;42.606;23.588;2022-09-09T09:28:22;94650.06;;;40.94;24.11
1926;BME280;964;42.606;23.588;2022-09-09T09:30:54;94644.78;;;41.83;24.24
1926;BME280;964;42.606;23.588;2022-09-09T09:33:26;94635.34;;;41.50;24.22
1926;BME280;964;42.606;23.588;2022-09-09T09:35:54;94641.50;;;40.92;24.34
1926;BME280;964;42.606;23.588;2022-09-09T09:38:22;94643.28;;;40.82;24.13
1926;BME280;964;42.606;23.588;2022-09-09T09:40:50;94643.66;;;40.37;25.25
1926;BME280;964;42.606;23.588;2022-09-09T09:43:26;94644.41;;;41.07;24.81
1926;BME280;964;42.606;23.588;2022-09-09T09:45:55;94643.06;;;39.97;25.36
1926;BME280;964;42.606;23.588;2022-09-09T09:48:24;94641.66;;;40.58;24.96
1926;BME280;964;42.606;23.588;2022-09-09T09:50:52;94644.53;;;40.74;24.15
1926;BME280;964;42.606;23.588;2022-09-09T09:53:23;94635.34;;;41.15;24.62
1926;BME280;964;42.606;23.588;2022-09-09T09:55:55;94635.44;;;41.30;24.78
1926;BME280;964;42.606;23.588;2022-09-09T09:58:25;94646.19;;;40.28;26.05
1926;BME280;964;42.606;23.588;2022-09-09T10:00:54;94641.22;;;41.75;24.03
1926;BME280;964;42.606;23.588;2022-09-09T10:03:27;94628.34;;;42.31;23.57
1926;BME280;964;42.606;23.588;2022-09-09T10:05:54;94629.06;;;41.57;24.86
1926;BME280;964;42.606;23.588;2022-09-09T10:08:23;94621.88;;;41.62;24.62
1926;BME280;964;42.606;23.588;2022-09-09T10:11:04;94615.72;;;42.75;23.45
1926;BME280;964;42.606;23.588;2022-09-09T10:13:40;94610.13;;;42.90;23.64
1926;BME280;964;42.606;23.588;2022-09-09T10:16:25;94614.63;;;42.63;22.94
1926;BME280;964;42.606;23.588;2022-09-09T10:19:03;94618.31;;;42.88;22.80
1926;BME280;964;42.606;23.588;2022-09-09T10:24:44;94611.44;;;42.89;23.20
1926;BME280;964;42.606;23.588;2022-09-09T10:27:19;94618.28;;;42.96;23.63
1926;BME280;964;42.606;23.588;2022-09-09T10:30:00;94618.25;;;43.19;23.17
1926;BME280;964;42.606;23.588;2022-09-09T10:32:43;94628.69;;;43.11;22.56
1926;BME280;964;42.606;23.588;2022-09-09T10:35:14;94614.41;;;44.51;21.96
1926;BME280;964;42.606;23.588;2022-09-09T10:41:31;94616.41;;;43.69;22.53
1926;BME280;964;42.606;23.588;2022-09-09T10:44:15;94619.00;;;43.27;23.16
1926;BME280;964;42.606;23.588;2022-09-09T10:46:56;94620.78;;;43.47;23.09
1926;BME280;964;42.606;23.588;2022-09-09T10:49:39;94621.53;;;43.40;22.74
1926;BME280;964;42.606;23.588;2022-09-09T10:52:14;94614.34;;;43.69;22.42
1926;BME280;964;42.606;23.588;2022-09-09T10:54:53;94612.38;;;43.94;22.44
1926;BME280;964;42.606;23.588;2022-09-09T10:57:28;94625.09;;;44.13;22.31
1926;BME280;964;42.606;23.588;2022-09-09T11:00:02;94619.22;;;43.61;22.71
1926;BME280;964;42.606;23.588;2022-09-09T11:02:32;94635.59;;;42.94;23.01
1926;BME280;964;42.606;23.588;2022-09-09T11:05:05;94626.38;;;43.47;22.42
1926;BME280;964;42.606;23.588;2022-09-09T11:07:38;94615.66;;;43.21;22.75
1926;BME280;964;42.606;23.588;2022-09-09T11:10:17;94629.66;;;42.83;23.54
1926;BME280;964;42.606;23.588;2022-09-09T11:12:49;94621.13;;;42.43;23.73
1926;BME280;964;42.606;23.588;2022-09-09T11:15:20;94628.94;;;42.67;23.12
1926;BME280;964;42.606;23.588;2022-09-09T11:17:52;94630.59;;;42.32;23.47
1926;BME280;964;42.606;23.588;2022-09-09T11:20:23;94637.63;;;42.41;24.37
1926;BME280;964;42.606;23.588;2022-09-09T11:22:55;94633.13;;;42.00;24.70
1926;BME280;964;42.606;23.588;2022-09-09T11:25:30;94639.44;;;42.00;23.65
1926;BME280;964;42.606;23.588;2022-09-09T11:28:21;94633.47;;;41.81;24.31
1926;BME280;964;42.606;23.588;2022-09-09T11:31:00;94635.47;;;42.62;23.59
1926;BME280;964;42.606;23.588;2022-09-09T11:33:51;94633.56;;;42.27;24.29
1926;BME280;964;42.606;23.588;2022-09-09T11:36:39;94625.53;;;42.16;23.82
1926;BME280;964;42.606;23.588;2022-09-09T11:39:27;94626.81;;;41.13;25.09
1926;BME280;964;42.606;23.588;2022-09-09T11:42:05;94620.97;;;41.67;24.59
1926;BME280;964;42.606;23.588;2022-09-09T11:44:33;94606.25;;;42.33;23.87
1926;BME280;964;42.606;23.588;2022-09-09T11:46:59;94615.34;;;42.41;23.28
1926;BME280;964;42.606;23.588;2022-09-09T11:49:28;94614.91;;;41.91;23.47
1926;BME280;964;42.606;23.588;2022-09-09T11:51:58;94602.25;;;41.75;24.41
1926;BME280;964;42.606;23.588;2022-09-09T11:54:29;94595.31;;;41.18;24.94
1926;BME280;964;42.606;23.588;2022-09-09T11:56:57;94594.72;;;41.47;24.49
1926;BME280;964;42.606;23.588;2022-09-09T11:59:26;94594.16;;;42.08;23.43
1926;BME280;964;42.606;23.588;2022-09-09T12:01:56;94594.16;;;42.45;23.37
1926;BME280;964;42.606;23.588;2022-09-09T12:04:37;94581.06;;;43.24;22.06
1926;BME280;964;42.606;23.588;2022-09-09T12:07:29;94573.03;;;43.28;21.90
1926;BME280;964;42.606;23.588;2022-09-09T12:09:59;94565.91;;;42.79;22.17
1926;BME280;964;42.606;23.588;2022-09-09T12:12:30;94547.56;;;43.24;22.13
1926;BME280;964;42.606;23.588;2022-09-09T12:15:03;94559.22;;;41.91;23.10
1926;BME280;964;42.606;23.588;2022-09-09T12:17:44;94562.91;;;41.79;22.83
1926;BME280;964;42.606;23.588;2022-09-09T12:20:13;94559.44;;;42.39;23.03
1926;BME280;964;42.606;23.588;2022-09-09T12:22:51;94562.78;;;42.45;22.14
1926;BME280;964;42.606;23.588;2022-09-09T12:25:28;94569.66;;;42.29;22.96
1926;BME280;964;42.606;23.588;2022-09-09T12:28:04;94558.47;;;41.91;23.30
1926;BME280;964;42.606;23.588;2022-09-09T12:30:36;94559.22;;;41.99;23.28
1926;BME280;964;42.606;23.588;2022-09-09T12:33:10;94554.13;;;41.08;24.30
1926;BME280;964;42.606;23.588;2022-09-09T12:35:38;94559.69;;;41.08;24.19
1926;BME280;964;42.606;23.588;2022-09-09T12:38:13;94554.38;;;40.90;24.25
1926;BME280;964;42.606;23.588;2022-09-09T12:40:41;94543.81;;;41.24;24.38
1926;BME280;964;42.606;23.588;2022-09-09T12:43:17;94540.97;;;41.60;24.09
1926;BME280;964;42.606;23.588;2022-09-09T12:45:46;94540.53;;;41.41;24.66
1926;BME280;964;42.606;23.588;2022-09-09T12:48:17;94536.53;;;41.13;24.08
1926;BME280;964;42.606;23.588;2022-09-09T12:50:46;94530.56;;;41.68;23.86
1926;BME280;964;42.606;23.588;2022-09-09T12:53:21;94534.66;;;41.08;24.99
1926;BME280;964;42.606;23.588;2022-09-09T12:55:50;94537.16;;;41.27;24.27
1926;BME280;964;42.606;23.588;2022-09-09T12:58:18;94528.94;;;41.80;23.62
1926;BME280;964;42.606;23.588;2022-09-09T13:00:49;94528.69;;;41.48;23.60
1926;BME280;964;42.606;23.588;2022-09-09T13:03:19;94532.66;;;41.83;23.36
1926;BME280;964;42.606;23.588;2022-09-09T13:05:46;94526.56;;;41.99;23.34
1926;BME280;964;42.606;23.588;2022-09-09T13:08:16;94526.56;;;41.99;22.97
1926;BME280;964;42.606;23.588;2022-09-09T13:10:48;94526.13;;;41.65;23.54
1926;BME280;964;42.606;23.588;2022-09-09T13:13:21;94523.38;;;41.80;23.60
1926;BME280;964;42.606;23.588;2022-09-09T13:15:51;94523.13;;;41.48;23.80
1926;BME280;964;42.606;23.588;2022-09-09T13:18:21;94510.22;;;41.81;23.53
1926;BME280;964;42.606;23.588;2022-09-09T13:20:49;94512.63;;;41.84;24.10
1926;BME280;964;42.606;23.588;2022-09-09T13:23:20;94499.25;;;42.36;24.09
1926;BME280;964;42.606;23.588;2022-09-09T13:25:55;94502.78;;;41.98;23.75
1926;BME280;964;42.606;23.588;2022-09-09T13:28:23;94506.97;;;41.54;24.89
1926;BME280;964;42.606;23.588;2022-09-09T13:30:58;94505.03;;;42.23;24.01
1926;BME280;964;42.606;23.588;2022-09-09T13:33:33;94502.56;;;42.49;24.02
1926;BME280;964;42.606;23.588;2022-09-09T13:36:02;94507.44;;;42.03;24.44
1926;BME280;964;42.606;23.588;2022-09-09T13:38:32;94513.13;;;41.60;25.22
1926;BME280;964;42.606;23.588;2022-09-09T13:41:03;94499.78;;;42.49;24.52
1926;BME280;964;42.606;23.588;2022-09-09T13:43:34;94496.84;;;42.32;25.26
1926;BME280;964;42.606;23.588;2022-09-09T13:46:05;94495.84;;;41.39;25.90
1926;BME280;964;42.606;23.588;2022-09-09T13:48:32;94500.31;;;41.72;26.17